createdAt,value
2023-02-16T00:01:16.382Z,101752.06
2023-02-16T00:03:44.555Z,101743.28
2023-02-16T00:06:16.229Z,101748.56
2023-02-16T00:08:45.080Z,101740.84
2023-02-16T00:11:33.955Z,101752.06
2023-02-16T00:14:02.636Z,101756.31
2023-02-16T00:16:32.222Z,101757.69
2023-02-16T00:19:00.598Z,101764.50
2023-02-16T00:21:28.589Z,101761.63
2023-02-16T00:23:56.789Z,101747.22
2023-02-16T00:26:26.940Z,101752.53
2023-02-16T00:28:56.118Z,101761.00
2023-02-16T00:31:27.281Z,101752.38
2023-02-16T00:33:58.150Z,101754.34
2023-02-16T00:36:27.661Z,101751.75
2023-02-16T00:38:55.722Z,101756.63
2023-02-16T00:41:43.102Z,101754.66
2023-02-16T00:44:15.633Z,101738.88
2023-02-16T00:46:44.615Z,101738.88
2023-02-16T00:49:16.133Z,101738.56
2023-02-16T00:51:44.222Z,101733.13
2023-02-16T00:54:12.726Z,101730.38
2023-02-16T00:56:41.757Z,101728.84
2023-02-16T00:59:13.713Z,101745.03
2023-02-16T01:01:41.923Z,101769.28
2023-02-16T01:04:12.888Z,101751.41
2023-02-16T01:07:02.100Z,101753.38
2023-02-16T01:09:47.842Z,101737.91
2023-02-16T01:12:17.148Z,101747.47
2023-02-16T01:14:46.635Z,101755.50
2023-02-16T01:17:14.693Z,101742.72
2023-02-16T01:19:43.273Z,101738.97
2023-02-16T01:22:13.105Z,101736.25
2023-02-16T01:24:41.178Z,101726.84
2023-02-16T01:27:11.372Z,101736.09
2023-02-16T01:29:39.538Z,101735.38
2023-02-16T01:32:07.588Z,101734.59
2023-02-16T01:34:37.254Z,101731.69
2023-02-16T01:37:05.701Z,101729.72
2023-02-16T01:39:35.485Z,101735.81
2023-02-16T01:42:10.534Z,101735.66
2023-02-16T01:44:41.080Z,101726.41
2023-02-16T01:47:16.112Z,101733.38
2023-02-16T01:49:44.214Z,101721.84
2023-02-16T01:52:15.259Z,101726.41
2023-02-16T01:54:48.628Z,101721.56
2023-02-16T01:57:24.214Z,101727.78
2023-02-16T02:00:06.546Z,101727.00
2023-02-16T02:02:42.949Z,101722.59
2023-02-16T02:05:36.229Z,101722.19
2023-02-16T02:08:22.890Z,101726.41
2023-02-16T02:10:56.060Z,101716.69
2023-02-16T02:13:29.004Z,101718.63
2023-02-16T02:15:59.539Z,101722.13
2023-02-16T02:18:27.592Z,101711.50
2023-02-16T02:21:27.339Z,101709.25
2023-02-16T02:24:10.035Z,101715.78
2023-02-16T02:26:56.005Z,101706.97
2023-02-16T02:29:31.716Z,101699.06
2023-02-16T02:32:04.792Z,101693.75
2023-02-16T02:34:44.616Z,101696.50
2023-02-16T02:37:18.985Z,101709.06
2023-02-16T02:40:04.058Z,101706.50
2023-02-16T02:42:34.541Z,101710.56
2023-02-16T02:45:08.383Z,101714.16
2023-02-16T02:47:40.604Z,101702.34
2023-02-16T02:50:28.011Z,101697.44
2023-02-16T02:52:58.072Z,101698.03
2023-02-16T02:55:40.812Z,101693.75
2023-02-16T02:58:26.692Z,101701.34
2023-02-16T03:00:57.329Z,101712.69
2023-02-16T03:03:27.534Z,101703.41
2023-02-16T03:05:58.375Z,101709.66
2023-02-16T03:08:28.073Z,101700.28
2023-02-16T03:11:17.122Z,101704.66
2023-02-16T03:13:47.283Z,101711.63
2023-02-16T03:16:21.395Z,101702.38
2023-02-16T03:19:07.021Z,101705.41
2023-02-16T03:21:52.977Z,101708.91
2023-02-16T03:24:41.117Z,101719.19
2023-02-16T03:27:27.684Z,101726.13
2023-02-16T03:29:56.986Z,101708.72
2023-02-16T03:32:26.625Z,101707.53
2023-02-16T03:34:54.603Z,101705.03
2023-02-16T03:37:22.758Z,101719.78
2023-02-16T03:40:08.605Z,101717.91
2023-02-16T03:42:36.832Z,101707.78
2023-02-16T03:45:04.963Z,101706.44
2023-02-16T03:47:34.322Z,101705.81
2023-02-16T03:50:04.794Z,101712.19
2023-02-16T03:52:32.746Z,101715.94
2023-02-16T03:55:00.895Z,101715.50
2023-02-16T03:57:28.924Z,101720.44
2023-02-16T03:59:59.227Z,101724.91
2023-02-16T04:02:28.516Z,101710.97
2023-02-16T04:04:58.318Z,101719.94
2023-02-16T04:07:26.451Z,101722.84
2023-02-16T04:09:54.474Z,101728.09
2023-02-16T04:12:36.663Z,101722.41
2023-02-16T04:15:05.322Z,101735.69
2023-02-16T04:17:33.679Z,101733.03
2023-02-16T04:20:03.744Z,101722.84
2023-02-16T04:22:31.787Z,101718.44
2023-02-16T04:24:59.946Z,101713.59
2023-02-16T04:27:28.190Z,101714.59
2023-02-16T04:29:56.649Z,101708.22
2023-02-16T04:32:24.704Z,101706.41
2023-02-16T04:34:52.956Z,101711.22
2023-02-16T04:37:22.339Z,101705.03
2023-02-16T04:39:50.602Z,101699.88
2023-02-16T04:42:18.532Z,101709.75
2023-02-16T04:44:46.748Z,101701.44
2023-02-16T04:47:14.998Z,101706.44
2023-02-16T04:49:43.237Z,101708.28
2023-02-16T04:52:14.230Z,101707.50
2023-02-16T04:54:48.353Z,101697.97
2023-02-16T04:57:21.353Z,101705.19
2023-02-16T04:59:49.384Z,101697.03
2023-02-16T05:02:17.585Z,101707.00
2023-02-16T05:04:45.646Z,101710.63
2023-02-16T05:07:14.125Z,101707.91
2023-02-16T05:09:44.053Z,101725.91
2023-02-16T05:12:30.153Z,101721.03
2023-02-16T05:14:58.208Z,101719.78
2023-02-16T05:17:26.904Z,101713.78
2023-02-16T05:19:55.974Z,101705.41
2023-02-16T05:22:24.324Z,101707.53
2023-02-16T05:24:53.796Z,101711.53
2023-02-16T05:27:22.657Z,101702.41
2023-02-16T05:29:51.018Z,101708.00
2023-02-16T05:32:21.316Z,101708.75
2023-02-16T05:34:52.378Z,101717.09
2023-02-16T05:37:20.412Z,101713.69
2023-02-16T05:39:48.414Z,101726.34
2023-02-16T05:42:17.741Z,101719.44
2023-02-16T05:44:45.794Z,101731.53
2023-02-16T05:47:13.828Z,101727.88
2023-02-16T05:49:41.966Z,101722.13
2023-02-16T05:52:10.056Z,101732.13
2023-02-16T05:54:38.266Z,101724.25
2023-02-16T05:57:06.308Z,101723.94
2023-02-16T05:59:35.846Z,101725.22
2023-02-16T06:02:03.869Z,101734.84
2023-02-16T06:04:32.533Z,101733.31
2023-02-16T06:07:00.695Z,101735.59
2023-02-16T06:09:28.938Z,101736.38
2023-02-16T06:11:57.086Z,101735.16
2023-02-16T06:14:25.306Z,101736.38
2023-02-16T06:16:56.474Z,101730.47
2023-02-16T06:19:24.618Z,101722.94
2023-02-16T06:21:55.266Z,101728.28
2023-02-16T06:24:23.517Z,101729.84
2023-02-16T06:26:51.407Z,101736.63
2023-02-16T06:29:19.452Z,101735.69
2023-02-16T06:31:47.593Z,101734.69
2023-02-16T06:34:17.276Z,101735.91
2023-02-16T06:36:45.446Z,101746.34
2023-02-16T06:39:13.555Z,101760.84
2023-02-16T06:41:41.864Z,101764.34
2023-02-16T06:44:12.213Z,101762.81
2023-02-16T06:46:40.889Z,101769.78
2023-02-16T06:49:09.171Z,101770.41
2023-02-16T06:51:38.432Z,101777.88
2023-02-16T06:54:06.582Z,101770.75
2023-02-16T06:56:36.798Z,101779.69
2023-02-16T06:59:05.926Z,101778.03
2023-02-16T07:01:33.952Z,101779.88
2023-02-16T07:04:02.308Z,101786.97
2023-02-16T07:06:32.235Z,101785.03
2023-02-16T07:09:02.457Z,101783.81
2023-02-16T07:11:30.755Z,101783.81
2023-02-16T07:13:58.695Z,101787.59
2023-02-16T07:16:26.864Z,101777.47
2023-02-16T07:18:54.989Z,101790.06
2023-02-16T07:21:23.267Z,101788.69
2023-02-16T07:23:51.263Z,101788.25
2023-02-16T07:26:21.626Z,101789.16
2023-02-16T07:28:49.803Z,101766.44
2023-02-16T07:31:18.381Z,101761.09
2023-02-16T07:33:46.531Z,101768.09
2023-02-16T07:36:15.212Z,101766.91
2023-02-16T07:38:43.330Z,101756.34
2023-02-16T07:41:12.432Z,101762.41
2023-02-16T07:43:43.045Z,101757.91
2023-02-16T07:46:11.360Z,101757.19
2023-02-16T07:48:40.209Z,101756.13
2023-02-16T07:51:10.443Z,101758.09
2023-02-16T07:53:43.213Z,101764.78
2023-02-16T07:56:19.562Z,101760.41
2023-02-16T07:58:58.195Z,101765.28
2023-02-16T08:01:29.890Z,101769.66
2023-02-16T08:03:58.232Z,101776.03
2023-02-16T08:06:30.176Z,101774.06
2023-02-16T08:09:07.269Z,101771.03
2023-02-16T08:11:42.126Z,101773.47
2023-02-16T08:14:14.992Z,101767.53
2023-02-16T08:16:53.544Z,101769.22
2023-02-16T08:19:23.115Z,101774.66
2023-02-16T08:21:54.612Z,101785.53
2023-02-16T08:24:27.623Z,101780.41
2023-02-16T08:26:56.337Z,101780.72
2023-02-16T08:29:29.598Z,101777.94
2023-02-16T08:32:12.734Z,101787.38
2023-02-16T08:34:45.763Z,101784.28
2023-02-16T08:37:17.956Z,101777.16
2023-02-16T08:39:50.384Z,101773.41
2023-02-16T08:42:23.672Z,101770.81
2023-02-16T08:44:54.858Z,101780.06
2023-02-16T08:47:24.241Z,101771.72
2023-02-16T08:49:52.525Z,101771.19
2023-02-16T08:52:21.151Z,101780.84
2023-02-16T08:54:51.369Z,101774.25
2023-02-16T08:57:19.725Z,101775.53
2023-02-16T09:00:07.849Z,101776.53
2023-02-16T09:02:37.566Z,101774.50
2023-02-16T09:05:08.893Z,101778.22
2023-02-16T09:07:37.506Z,101775.13
2023-02-16T09:10:06.108Z,101773.41
2023-02-16T09:12:35.416Z,101782.09
2023-02-16T09:15:04.527Z,101765.94
2023-02-16T09:17:32.803Z,101769.63
2023-02-16T09:20:02.549Z,101776.84
2023-02-16T09:22:30.546Z,101783.97
2023-02-16T09:24:58.597Z,101781.66
2023-02-16T09:27:27.449Z,101783.72
2023-02-16T09:29:55.724Z,101772.94
2023-02-16T09:32:24.547Z,101771.81
2023-02-16T09:34:53.135Z,101773.59
2023-02-16T09:37:22.751Z,101779.66
2023-02-16T09:39:50.937Z,101785.22
2023-02-16T09:42:26.704Z,101787.03
2023-02-16T09:44:59.677Z,101785.34
2023-02-16T09:47:30.966Z,101794.31
2023-02-16T09:49:59.974Z,101781.28
2023-02-16T09:52:34.346Z,101772.19
2023-02-16T09:55:04.137Z,101771.72
2023-02-16T09:57:41.311Z,101766.53
2023-02-16T10:00:16.328Z,101765.19
2023-02-16T10:02:50.101Z,101772.03
2023-02-16T10:05:21.428Z,101766.19
2023-02-16T10:07:58.820Z,101757.31
2023-02-16T10:10:31.336Z,101757.22
2023-02-16T10:13:03.223Z,101766.69
2023-02-16T10:15:33.455Z,101761.56
2023-02-16T10:18:04.397Z,101762.03
2023-02-16T10:20:34.385Z,101763.47
2023-02-16T10:23:09.376Z,101748.75
2023-02-16T10:25:43.517Z,101754.28
2023-02-16T10:28:16.790Z,101749.66
2023-02-16T10:30:49.615Z,101749.75
2023-02-16T10:33:22.428Z,101739.31
2023-02-16T10:35:51.355Z,101740.81
2023-02-16T10:38:26.825Z,101742.00
2023-02-16T10:40:58.305Z,101739.59
2023-02-16T10:43:40.712Z,101743.81
2023-02-16T10:46:11.618Z,101743.56
2023-02-16T10:48:39.731Z,101726.06
2023-02-16T10:53:36.466Z,101737.38
2023-02-16T10:56:28.604Z,101724.09
2023-02-16T10:58:58.528Z,101714.31
2023-02-16T11:01:32.698Z,101704.50
2023-02-16T11:04:01.145Z,101700.47
2023-02-16T11:06:29.864Z,101700.81
2023-02-16T11:09:01.462Z,101694.59
2023-02-16T11:11:32.500Z,101689.56
2023-02-16T11:14:03.669Z,101684.47
2023-02-16T11:16:33.147Z,101684.25
2023-02-16T11:19:05.955Z,101685.22
2023-02-16T11:21:46.597Z,101681.91
2023-02-16T11:24:27.701Z,101675.97
2023-02-16T11:27:05.026Z,101671.63
2023-02-16T11:29:34.305Z,101664.66
2023-02-16T11:32:09.422Z,101654.88
2023-02-16T11:34:42.649Z,101648.84
2023-02-16T11:37:17.939Z,101642.88
2023-02-16T11:39:53.377Z,101642.75
2023-02-16T11:42:30.147Z,101637.19
2023-02-16T11:45:00.418Z,101641.91
2023-02-16T11:47:31.663Z,101638.34
2023-02-16T11:50:20.053Z,101636.13
2023-02-16T11:52:50.337Z,101628.75
2023-02-16T11:55:27.768Z,101623.06
2023-02-16T11:57:57.054Z,101631.81
2023-02-16T12:00:27.611Z,101623.81
2023-02-16T12:03:21.848Z,101621.03
2023-02-16T12:06:06.637Z,101625.97
2023-02-16T12:08:56.184Z,101623.56
2023-02-16T12:11:29.441Z,101631.03
2023-02-16T12:14:13.084Z,101625.03
2023-02-16T12:16:48.344Z,101631.91
2023-02-16T12:19:31.270Z,101624.72
2023-02-16T12:22:08.253Z,101629.31
2023-02-16T12:24:48.178Z,101625.56
2023-02-16T12:27:26.998Z,101611.66
2023-02-16T12:30:01.840Z,101608.81
2023-02-16T12:32:44.857Z,101618.91
2023-02-16T12:35:37.734Z,101617.22
2023-02-16T12:38:19.068Z,101613.78
2023-02-16T12:40:58.093Z,101608.91
2023-02-16T12:43:39.745Z,101613.69
2023-02-16T12:46:16.942Z,101604.63
2023-02-16T12:48:50.249Z,101598.88
2023-02-16T12:51:22.448Z,101599.75
2023-02-16T12:53:57.721Z,101589.72
2023-02-16T12:56:29.699Z,101587.94
2023-02-16T12:59:09.091Z,101587.78
2023-02-16T13:01:37.849Z,101583.66
2023-02-16T13:04:17.832Z,101582.59
2023-02-16T13:06:56.520Z,101577.50
2023-02-16T13:09:34.276Z,101572.94
2023-02-16T13:12:08.630Z,101573.16
2023-02-16T13:14:42.296Z,101562.84
2023-02-16T13:17:15.268Z,101567.91
2023-02-16T13:19:45.264Z,101566.81
2023-02-16T13:22:32.710Z,101554.50
2023-02-16T13:25:22.274Z,101556.84
2023-02-16T13:27:58.913Z,101552.59
2023-02-16T13:30:59.741Z,101550.63
2023-02-16T13:33:45.629Z,101552.06
2023-02-16T13:36:36.124Z,101552.19
2023-02-16T13:39:35.130Z,101544.28
2023-02-16T13:42:28.349Z,101536.19
2023-02-16T13:44:59.440Z,101519.72
2023-02-16T13:47:31.674Z,101518.25
2023-02-16T13:50:01.585Z,101517.53
2023-02-16T13:52:34.105Z,101514.50
2023-02-16T13:55:05.324Z,101510.66
2023-02-16T13:58:06.032Z,101502.72
2023-02-16T14:00:38.129Z,101509.16
2023-02-16T14:03:13.349Z,101499.06
2023-02-16T14:05:43.380Z,101503.13
2023-02-16T14:08:17.948Z,101491.09
2023-02-16T14:11:04.789Z,101493.56
2023-02-16T14:13:35.217Z,101494.13
2023-02-16T14:16:09.585Z,101491.78
2023-02-16T14:18:44.647Z,101488.63
2023-02-16T14:21:27.580Z,101486.75
2023-02-16T14:23:57.950Z,101485.22
2023-02-16T14:26:28.754Z,101483.69
2023-02-16T14:29:10.190Z,101480.34
2023-02-16T14:31:45.523Z,101470.38
2023-02-16T14:34:22.345Z,101471.34
2023-02-16T14:37:10.511Z,101474.50
2023-02-16T14:40:04.031Z,101479.03
2023-02-16T14:42:34.605Z,101476.00
2023-02-16T14:45:19.686Z,101466.34
2023-02-16T14:47:59.052Z,101451.59
2023-02-16T14:50:40.099Z,101456.06
2023-02-16T14:53:40.618Z,101470.06
2023-02-16T14:56:28.404Z,101460.22
2023-02-16T14:59:03.070Z,101458.63
2023-02-16T15:01:41.102Z,101459.78
2023-02-16T15:04:11.042Z,101458.22
2023-02-16T15:06:43.918Z,101456.53
2023-02-16T15:09:18.458Z,101453.97
2023-02-16T15:12:08.844Z,101453.13
2023-02-16T15:14:47.869Z,101445.13
2023-02-16T15:17:27.021Z,101448.66
2023-02-16T15:19:59.138Z,101439.25
2023-02-16T15:22:29.868Z,101438.53
2023-02-16T15:25:00.795Z,101444.81
2023-02-16T15:27:30.081Z,101436.38
2023-02-16T15:30:21.157Z,101441.91
2023-02-16T15:32:55.314Z,101439.25
2023-02-16T15:35:27.026Z,101439.47
2023-02-16T15:38:05.595Z,101430.72
2023-02-16T15:40:35.377Z,101428.81
2023-02-16T15:43:18.964Z,101430.22
2023-02-16T15:45:52.545Z,101426.78
2023-02-16T15:48:28.232Z,101434.66
2023-02-16T15:51:01.289Z,101437.75
2023-02-16T15:53:42.680Z,101447.22
2023-02-16T15:56:38.157Z,101450.88
2023-02-16T15:59:22.953Z,101454.53
2023-02-16T16:01:58.938Z,101444.88
2023-02-16T16:04:28.852Z,101454.75
2023-02-16T16:06:58.124Z,101454.97
2023-02-16T16:09:30.343Z,101470.13
2023-02-16T16:12:00.987Z,101458.53
2023-02-16T16:14:30.529Z,101457.88
2023-02-16T16:16:59.355Z,101466.03
2023-02-16T16:19:34.700Z,101470.31
2023-02-16T16:22:04.620Z,101458.97
2023-02-16T16:24:39.061Z,101463.97
2023-02-16T16:27:09.481Z,101459.03
2023-02-16T16:29:41.238Z,101457.84
2023-02-16T16:32:21.144Z,101451.81
2023-02-16T16:34:50.467Z,101450.09
2023-02-16T16:37:26.522Z,101450.66
2023-02-16T16:40:06.941Z,101458.94
2023-02-16T16:42:39.301Z,101462.69
2023-02-16T16:45:28.734Z,101458.19
2023-02-16T16:48:01.941Z,101463.44
2023-02-16T16:50:33.457Z,101459.94
2023-02-16T16:53:01.683Z,101460.19
2023-02-16T16:55:34.296Z,101452.44
2023-02-16T16:58:06.083Z,101463.69
2023-02-16T17:00:37.228Z,101449.16
2023-02-16T17:03:07.726Z,101446.94
2023-02-16T17:05:38.302Z,101444.16
2023-02-16T17:08:06.796Z,101436.66
2023-02-16T17:10:38.759Z,101443.16
2023-02-16T17:13:07.863Z,101449.66
2023-02-16T17:15:43.442Z,101450.19
2023-02-16T17:18:16.262Z,101447.16
2023-02-16T17:20:44.969Z,101442.66
2023-02-16T17:23:14.850Z,101438.41
2023-02-16T17:25:44.722Z,101445.41
2023-02-16T17:28:13.620Z,101440.41
2023-02-16T17:30:42.602Z,101444.66
2023-02-16T17:33:12.075Z,101442.16
2023-02-16T17:35:42.682Z,101445.16
2023-02-16T17:38:13.488Z,101445.38
2023-02-16T17:40:43.918Z,101442.13
2023-02-16T17:43:14.891Z,101441.63
2023-02-16T17:45:43.749Z,101437.34
2023-02-16T17:48:17.183Z,101433.84
2023-02-16T17:50:45.641Z,101439.13
2023-02-16T17:53:15.270Z,101446.88
2023-02-16T17:55:44.114Z,101443.88
2023-02-16T17:58:16.338Z,101452.63
2023-02-16T18:00:45.873Z,101449.84
2023-02-16T18:03:14.131Z,101461.13
2023-02-16T18:05:45.424Z,101457.09
2023-02-16T18:08:13.953Z,101461.38
2023-02-16T18:10:52.555Z,101455.38
2023-02-16T18:13:22.530Z,101463.13
2023-02-16T18:15:51.391Z,101465.38
2023-02-16T18:18:20.293Z,101455.34
2023-02-16T18:20:48.720Z,101456.34
2023-02-16T18:23:17.850Z,101460.34
2023-02-16T18:25:46.385Z,101458.28
2023-02-16T18:28:18.244Z,101453.72
2023-02-16T18:30:49.289Z,101452.66
2023-02-16T18:33:18.735Z,101455.13
2023-02-16T18:35:48.562Z,101451.09
2023-02-16T18:38:17.105Z,101444.75
2023-02-16T18:40:46.245Z,101443.59
2023-02-16T18:43:15.387Z,101445.56
2023-02-16T18:45:43.874Z,101441.53
2023-02-16T18:48:14.098Z,101440.72
2023-02-16T18:50:42.663Z,101432.06
2023-02-16T18:53:10.971Z,101435.00
2023-02-16T18:55:39.705Z,101433.66
2023-02-16T18:58:08.703Z,101428.84
2023-02-16T19:00:37.693Z,101428.78
2023-02-16T19:03:06.483Z,101433.50
2023-02-16T19:05:36.340Z,101431.22
2023-02-16T19:08:04.648Z,101435.00
2023-02-16T19:10:33.371Z,101439.84
2023-02-16T19:13:02.276Z,101439.84
2023-02-16T19:15:33.282Z,101444.41
2023-02-16T19:18:01.531Z,101446.91
2023-02-16T19:20:29.973Z,101446.66
2023-02-16T19:22:59.634Z,101444.09
2023-02-16T19:25:29.147Z,101453.97
2023-02-16T19:27:57.764Z,101448.59
2023-02-16T19:30:26.575Z,101464.91
2023-02-16T19:32:56.756Z,101455.63
2023-02-16T19:35:25.055Z,101453.09
2023-02-16T19:37:53.651Z,101453.56
2023-02-16T19:40:24.004Z,101448.59
2023-02-16T19:42:52.948Z,101453.09
2023-02-16T19:45:21.508Z,101440.97
2023-02-16T19:47:51.872Z,101450.31
2023-02-16T19:50:20.702Z,101454.81
2023-02-16T19:52:48.873Z,101445.00
2023-02-16T19:55:18.444Z,101460.81
2023-02-16T19:57:48.165Z,101451.00
2023-02-16T20:00:16.396Z,101460.78
2023-02-16T20:02:45.057Z,101452.63
2023-02-16T20:05:13.666Z,101455.72
2023-02-16T20:07:41.875Z,101466.47
2023-02-16T20:10:10.472Z,101460.59
2023-02-16T20:12:40.374Z,101456.34
2023-02-16T20:15:14.180Z,101460.06
2023-02-16T20:17:45.274Z,101451.97
2023-02-16T20:20:15.208Z,101453.03
2023-02-16T20:22:43.634Z,101447.25
2023-02-16T20:25:12.604Z,101440.16
2023-02-16T20:27:41.232Z,101432.31
2023-02-16T20:30:17.622Z,101431.63
2023-02-16T20:32:47.116Z,101432.09
2023-02-16T20:35:16.153Z,101438.91
2023-02-16T20:37:44.722Z,101433.16
2023-02-16T20:40:13.935Z,101436.34
2023-02-16T20:42:42.183Z,101433.66
2023-02-16T20:45:12.179Z,101431.88
2023-02-16T20:47:40.729Z,101428.66
2023-02-16T20:50:13.366Z,101433.59
2023-02-16T20:52:42.172Z,101434.78
2023-02-16T20:55:11.833Z,101437.66
2023-02-16T20:57:42.876Z,101432.25
2023-02-16T21:00:18.569Z,101433.91
2023-02-16T21:02:47.151Z,101428.44
2023-02-16T21:05:16.173Z,101428.22
2023-02-16T21:07:44.458Z,101431.22
2023-02-16T21:10:15.471Z,101426.34
2023-02-16T21:12:43.766Z,101428.28
2023-02-16T21:15:13.405Z,101427.34
2023-02-16T21:17:41.767Z,101422.53
2023-02-16T21:20:11.202Z,101422.53
2023-02-16T21:22:39.590Z,101430.63
2023-02-16T21:25:08.880Z,101418.03
2023-02-16T21:27:37.427Z,101414.22
2023-02-16T21:30:07.002Z,101412.56
2023-02-16T21:32:37.085Z,101410.41
2023-02-16T21:35:06.762Z,101408.91
2023-02-16T21:37:38.481Z,101401.88
2023-02-16T21:40:25.600Z,101400.03
2023-02-16T21:42:54.062Z,101398.13
2023-02-16T21:45:22.549Z,101391.38
2023-02-16T21:48:09.975Z,101392.81
2023-02-16T21:50:40.631Z,101390.03
2023-02-16T21:53:10.381Z,101388.44
2023-02-16T21:55:56.608Z,101388.13
2023-02-16T21:58:26.700Z,101386.19
2023-02-16T22:00:56.419Z,101382.97
2023-02-16T22:03:26.189Z,101384.91
2023-02-16T22:05:54.395Z,101378.13
2023-02-16T22:08:22.542Z,101384.50
2023-02-16T22:10:50.825Z,101378.59
2023-02-16T22:13:19.056Z,101380.06
2023-02-16T22:15:48.872Z,101371.63
2023-02-16T22:18:17.083Z,101371.84
2023-02-16T22:20:46.684Z,101377.19
2023-02-16T22:23:14.911Z,101366.19
2023-02-16T22:25:43.323Z,101370.84
2023-02-16T22:28:11.970Z,101377.28
2023-02-16T22:30:40.329Z,101372.03
2023-02-16T22:33:09.807Z,101368.63
2023-02-16T22:35:38.053Z,101366.47
2023-02-16T22:38:07.624Z,101368.50
2023-02-16T22:40:35.821Z,101361.75
2023-02-16T22:43:04.012Z,101366.50
2023-02-16T22:45:32.465Z,101374.78
2023-02-16T22:48:00.625Z,101382.09
2023-02-16T22:50:28.857Z,101384.66
2023-02-16T22:52:57.362Z,101374.19
2023-02-16T22:55:27.244Z,101380.59
2023-02-16T22:57:55.647Z,101382.13
2023-02-16T23:00:27.264Z,101384.16
2023-02-16T23:02:55.606Z,101387.00
2023-02-16T23:05:23.906Z,101380.09
2023-02-16T23:07:52.170Z,101382.00
2023-02-16T23:10:20.328Z,101381.16
2023-02-16T23:12:49.925Z,101380.94
2023-02-16T23:15:18.192Z,101384.53
2023-02-16T23:17:46.686Z,101375.72
2023-02-16T23:20:14.911Z,101376.00
2023-02-16T23:22:43.322Z,101375.25
2023-02-16T23:25:29.138Z,101375.41
2023-02-16T23:27:59.078Z,101374.97
2023-02-16T23:30:27.900Z,101374.56
2023-02-16T23:32:56.356Z,101381.91
2023-02-16T23:35:24.736Z,101379.00
2023-02-16T23:37:53.288Z,101383.56
2023-02-16T23:40:21.778Z,101381.63
2023-02-16T23:42:50.248Z,101379.97
2023-02-16T23:45:21.402Z,101375.56
2023-02-16T23:47:49.557Z,101374.75
2023-02-16T23:50:18.113Z,101373.03
2023-02-16T23:52:46.509Z,101370.31
2023-02-16T23:55:15.093Z,101369.28
2023-02-16T23:57:43.471Z,101357.91
